KDEH/DEH METAR and TAF weather

Enter ICAO airport designator
Station Type Date Time Source
KDEH METAR 2019/12/10 03:15 UTC NOAA

KDEH 100315Z AUTO 29007G17KT 250V310 10SM BKN011 BKN015 OVC040 M13/M15 A2988 RMK AO2


Station Type Date Time Source
KDEH Decoded METAR 2019/12/10 03:15 UTC NOAA

Decorah, IA, United States (KDEH) 43-17N 091-44W
Dec 09, 2019 - 10:15 PM EST / 2019.12.10 0315 UTC
Wind: from the WNW (290 degrees) at 8 MPH (7 KT) gusting to 20 MPH (17 KT) (direction variable):0
Visibility: 10 mile(s):0
Sky conditions: overcast
Temperature: 8 F (-13 C)
Windchill: -4 F (-20 C):1
Dew Point: 5 F (-15 C)
Relative Humidity: 84%
Pressure (altimeter): 29.88 in. Hg (1011 hPa)
ob: KDEH 100315Z AUTO 29007G17KT 250V310 10SM BKN011 BKN015 OVC040 M13/M15 A2988 RMK AO2
cycle: 3

Station Type Date Time Source
KDEH TAF UTC NOAA

Error!

Example: see airport list